Time;durP1;ratioP1;P1;durP2;ratioP2;P2;SDS_P1;SDS_P2;PMS_P1;PMS_P2;Temp;Humidity;BMP_temperature;BMP_pressure;BME280_temperature;BME280_humidity;BME280_pressure;Samples;Min_cycle;Max_cycle;Signal;HPM_P1;HPM_P2
2023/09/10 00:01:11;;;;;;;;;;;16.60;99.90;;;;;;5146504;27;20070;-75
2023/09/10 00:03:37;;;;;;;0.38;0.38;;;16.50;99.90;;;;;;5137280;27;19962;-76
2023/09/10 00:06:07;;;;;;;0.30;0.30;;;16.50;99.90;;;;;;5110585;27;20389;-75
2023/09/10 00:08:34;;;;;;;0.40;0.40;;;16.50;99.90;;;;;;5151876;27;20205;-75
2023/09/10 00:11:00;;;;;;;0.30;0.30;;;16.50;99.90;;;;;;5140534;27;20046;-75
2023/09/10 00:13:26;;;;;;;0.20;0.20;;;16.50;99.90;;;;;;5145640;27;20038;-76
2023/09/10 00:15:52;;;;;;;;;;;16.40;99.90;;;;;;5144316;27;20099;-76
2023/09/10 00:18:19;;;;;;;0.32;0.30;;;16.40;99.90;;;;;;5144996;27;19973;-75
2023/09/10 00:20:45;;;;;;;0.20;0.20;;;16.40;99.90;;;;;;5138151;27;20039;-75
2023/09/10 00:23:11;;;;;;;;;;;16.40;99.90;;;;;;5126717;27;20043;-76
2023/09/10 00:25:36;;;;;;;0.20;0.20;;;16.40;99.90;;;;;;5145338;27;19944;-75
2023/09/10 00:28:02;;;;;;;;;;;16.40;99.90;;;;;;5143709;27;20054;-76
2023/09/10 00:30:28;;;;;;;0.20;0.20;;;16.40;99.90;;;;;;5133021;27;19927;-76
2023/09/10 00:32:54;;;;;;;;;;;16.40;99.90;;;;;;5140632;27;20043;-76
2023/09/10 00:35:19;;;;;;;0.20;0.20;;;16.30;99.90;;;;;;5142589;27;19923;-77
2023/09/10 00:37:45;;;;;;;;;;;16.30;99.90;;;;;;5147117;27;20083;-77
2023/09/10 00:40:12;;;;;;;0.30;0.30;;;16.30;99.90;;;;;;5144833;27;19919;-75
2023/09/10 00:42:38;;;;;;;0.20;0.20;;;16.30;99.90;;;;;;5141532;27;20476;-75
2023/09/10 00:45:06;;;;;;;0.30;0.30;;;16.20;99.90;;;;;;5144860;27;20043;-75
2023/09/10 00:47:33;;;;;;;0.20;0.20;;;16.30;99.90;;;;;;5143349;27;20050;-75
2023/09/10 00:50:00;;;;;;;0.28;0.28;;;16.20;99.90;;;;;;5132389;27;20650;-76
2023/09/10 00:52:28;;;;;;;0.30;0.30;;;16.20;99.90;;;;;;5142216;27;20043;-75
2023/09/10 00:54:54;;;;;;;0.28;0.28;;;16.20;99.90;;;;;;5143894;27;20074;-75
2023/09/10 00:57:21;;;;;;;0.40;0.40;;;16.10;99.90;;;;;;5144681;27;20050;-75
2023/09/10 00:59:47;;;;;;;0.20;0.20;;;16.10;99.90;;;;;;5122414;27;20113;-75
2023/09/10 01:02:15;;;;;;;0.20;0.20;;;16.10;99.90;;;;;;5141216;27;20051;-75
2023/09/10 01:04:41;;;;;;;0.20;0.20;;;16.10;99.90;;;;;;5123368;27;20401;-76
2023/09/10 01:07:07;;;;;;;0.90;0.90;;;16.10;99.90;;;;;;5144467;27;20047;-76
2023/09/10 01:09:33;;;;;;;;;;;16.10;99.90;;;;;;5143126;27;20047;-75
2023/09/10 01:12:35;;;;;;;0.20;0.20;;;16.10;99.90;;;;;;5109191;27;19923;-75
2023/09/10 01:15:16;;;;;;;0.20;0.20;;;16.00;99.90;;;;;;5099987;27;20047;-75
2023/09/10 01:18:07;;;;;;;0.30;0.30;;;16.00;99.90;;;;;;5140752;27;20374;-75
2023/09/10 01:21:04;;;;;;;0.20;0.20;;;16.00;99.90;;;;;;5146065;27;20104;-76
2023/09/10 01:23:36;;;;;;;;;;;16.00;99.90;;;;;;5126182;27;20046;-76
2023/09/10 01:26:02;;;;;;;0.20;0.20;;;15.90;99.90;;;;;;5141456;27;19919;-75
2023/09/10 01:28:28;;;;;;;0.20;0.20;;;15.90;99.90;;;;;;5125250;27;20072;-75
2023/09/10 01:30:54;;;;;;;;;;;15.90;99.90;;;;;;5133964;27;20039;-75
2023/09/10 01:33:34;;;;;;;0.20;0.20;;;15.90;99.90;;;;;;5140762;27;19922;-75
2023/09/10 01:36:22;;;;;;;0.30;0.30;;;15.90;99.90;;;;;;5122032;27;20050;-75
2023/09/10 01:38:56;;;;;;;0.95;0.85;;;15.90;99.90;;;;;;5125155;27;20054;-76
2023/09/10 01:41:25;;;;;;;0.22;0.22;;;15.90;99.90;;;;;;5145383;27;20118;-75
2023/09/10 01:43:52;;;;;;;0.30;0.30;;;15.80;99.90;;;;;;5139426;27;20039;-74
2023/09/10 01:46:19;;;;;;;0.73;0.45;;;15.80;99.90;;;;;;5131604;27;20051;-75
2023/09/10 01:48:45;;;;;;;0.45;0.45;;;15.80;99.90;;;;;;5147564;27;20072;-76
2023/09/10 01:51:10;;;;;;;;;;;15.80;99.90;;;;;;5140824;27;20051;-75
2023/09/10 01:53:36;;;;;;;0.43;0.43;;;15.80;99.90;;;;;;5123823;27;20361;-75
2023/09/10 01:56:02;;;;;;;0.25;0.25;;;15.80;99.90;;;;;;5131183;27;20047;-75
2023/09/10 01:58:28;;;;;;;0.10;0.10;;;15.80;99.90;;;;;;5107731;27;20473;-75
2023/09/10 02:00:53;;;;;;;;;;;15.80;99.90;;;;;;5140136;27;20095;-75
2023/09/10 02:03:19;;;;;;;0.20;0.20;;;15.80;99.90;;;;;;5140762;27;19938;-75
2023/09/10 02:05:44;;;;;;;;;;;15.80;99.90;;;;;;5141635;27;20115;-75
2023/09/10 02:08:10;;;;;;;0.25;0.25;;;15.70;99.90;;;;;;5140520;27;19930;-75
2023/09/10 02:10:36;;;;;;;;;;;15.70;99.90;;;;;;5140199;27;20042;-75
2023/09/10 02:13:03;;;;;;;0.20;0.20;;;15.70;99.90;;;;;;5139258;27;19923;-76
2023/09/10 02:15:29;;;;;;;0.30;0.30;;;15.70;99.90;;;;;;5139462;27;20496;-75
2023/09/10 02:17:56;;;;;;;0.17;0.17;;;15.60;99.90;;;;;;5140419;27;20061;-75
2023/09/10 02:20:21;;;;;;;0.25;0.25;;;15.60;99.90;;;;;;5143202;27;20046;-75
2023/09/10 02:22:47;;;;;;;;;;;15.60;99.90;;;;;;5143418;27;20609;-75
2023/09/10 02:25:13;;;;;;;0.30;0.30;;;15.60;99.90;;;;;;5140228;27;19929;-75
2023/09/10 02:27:39;;;;;;;;;;;15.60;99.90;;;;;;5124162;27;20111;-75
2023/09/10 02:30:07;;;;;;;0.20;0.20;;;15.50;99.90;;;;;;5132025;27;19927;-75
2023/09/10 02:32:32;;;;;;;0.30;0.30;;;15.50;99.90;;;;;;5137300;27;20147;-76
2023/09/10 02:34:58;;;;;;;;;;;15.50;99.90;;;;;;5143202;27;20477;-76
2023/09/10 02:37:24;;;;;;;0.40;0.40;;;15.50;99.90;;;;;;5140216;27;19933;-75
2023/09/10 02:39:50;;;;;;;;;;;15.50;99.90;;;;;;5139570;27;20790;-76
2023/09/10 02:42:17;;;;;;;0.20;0.20;;;15.50;99.90;;;;;;5113305;27;19923;-76
2023/09/10 02:44:43;;;;;;;0.30;0.30;;;15.50;99.90;;;;;;5142571;27;20039;-75
2023/09/10 02:47:08;;;;;;;;;;;15.50;99.90;;;;;;5142575;27;20510;-76
2023/09/10 02:49:34;;;;;;;0.20;0.20;;;16.00;99.90;;;;;;5141918;27;19923;-75
2023/09/10 02:52:00;;;;;;;;;;;15.40;99.90;;;;;;5136659;27;20065;-76
2023/09/10 02:54:25;;;;;;;0.40;0.40;;;15.40;99.90;;;;;;5123627;27;19923;-76
2023/09/10 02:56:51;;;;;;;0.20;0.20;;;15.50;99.90;;;;;;5139097;27;20058;-76
2023/09/10 02:59:18;;;;;;;;;;;15.50;99.90;;;;;;5139884;27;20069;-76
2023/09/10 03:01:44;;;;;;;;;;;15.50;99.90;;;;;;5141795;27;19919;-75
2023/09/10 03:04:09;;;;;;;0.47;0.47;;;15.50;99.90;;;;;;5141961;27;19922;-75
2023/09/10 03:06:35;;;;;;;0.20;0.20;;;15.50;99.90;;;;;;5142065;27;20066;-75
2023/09/10 03:09:01;;;;;;;;;;;15.50;99.90;;;;;;5137233;27;20047;-76
2023/09/10 03:11:26;;;;;;;0.20;0.20;;;15.40;99.90;;;;;;5116434;28;19919;-76
2023/09/10 03:13:52;;;;;;;;;;;15.40;99.90;;;;;;5141904;27;20127;-76
2023/09/10 03:16:17;;;;;;;0.20;0.20;;;15.40;99.90;;;;;;5124506;27;20642;-75
2023/09/10 03:18:44;;;;;;;;;;;15.40;99.90;;;;;;5137169;27;20047;-75
2023/09/10 03:21:10;;;;;;;0.20;0.20;;;15.40;99.90;;;;;;5118599;27;19938;-75
2023/09/10 03:23:35;;;;;;;;;;;15.40;99.90;;;;;;5139701;27;20069;-75
2023/09/10 03:26:01;;;;;;;0.30;0.30;;;15.40;99.90;;;;;;5139652;27;19924;-76
2023/09/10 03:28:27;;;;;;;;;;;15.40;99.90;;;;;;5147463;27;20047;-75
2023/09/10 03:30:57;;;;;;;0.20;0.20;;;15.30;99.90;;;;;;5111735;28;19923;-76
2023/09/10 03:33:23;;;;;;;0.20;0.20;;;15.30;99.90;;;;;;5133224;27;20071;-76
2023/09/10 03:35:48;;;;;;;;;;;15.30;99.90;;;;;;5123906;27;20042;-76
2023/09/10 03:38:14;;;;;;;0.20;0.20;;;15.20;99.90;;;;;;5096279;28;19971;-76
2023/09/10 03:40:39;;;;;;;;;;;15.20;99.90;;;;;;5140422;27;20036;-75
2023/09/10 03:43:06;;;;;;;0.28;0.28;;;15.20;99.90;;;;;;5142166;27;20276;-75
2023/09/10 03:45:32;;;;;;;0.30;0.30;;;15.20;99.90;;;;;;5138891;27;20047;-76
2023/09/10 03:47:57;;;;;;;;;;;15.20;99.90;;;;;;5142162;27;20092;-76
2023/09/10 03:50:23;;;;;;;0.20;0.20;;;15.20;99.90;;;;;;5140400;27;19930;-76
2023/09/10 03:52:49;;;;;;;0.30;0.30;;;15.10;99.90;;;;;;5123592;27;20769;-75
2023/09/10 03:55:15;;;;;;;0.20;0.20;;;15.10;99.90;;;;;;5141350;27;20054;-76
2023/09/10 03:57:40;;;;;;;0.30;0.30;;;15.10;99.90;;;;;;5120472;27;20090;-75
2023/09/10 04:00:08;;;;;;;0.20;0.20;;;15.10;99.90;;;;;;5138564;27;20118;-76
2023/09/10 04:02:33;;;;;;;0.20;0.20;;;15.10;99.90;;;;;;5120835;27;20058;-75
2023/09/10 04:04:59;;;;;;;;;;;15.10;99.90;;;;;;5145979;27;20050;-76
2023/09/10 04:07:25;;;;;;;0.30;0.30;;;15.10;99.90;;;;;;5127009;27;19927;-76
2023/09/10 04:09:57;;;;;;;0.30;0.30;;;15.10;99.90;;;;;;5142283;27;20081;-75
2023/09/10 04:12:22;;;;;;;0.20;0.20;;;15.10;99.90;;;;;;5142335;27;20485;-75
2023/09/10 04:14:48;;;;;;;;;;;15.10;99.90;;;;;;5144519;27;20045;-75
2023/09/10 04:17:17;;;;;;;0.25;0.25;;;15.10;99.90;;;;;;5127045;27;19927;-76
2023/09/10 04:19:44;;;;;;;0.20;0.20;;;15.10;99.90;;;;;;5143108;27;20053;-76
2023/09/10 04:22:09;;;;;;;0.28;0.28;;;15.10;99.90;;;;;;5141093;27;20043;-76
2023/09/10 04:24:35;;;;;;;;;;;15.00;99.90;;;;;;5142691;27;20050;-75
2023/09/10 04:27:01;;;;;;;0.20;0.20;;;15.00;99.90;;;;;;5141688;27;19923;-76
2023/09/10 04:29:27;;;;;;;0.13;0.13;;;15.00;99.90;;;;;;5140416;27;20047;-75
2023/09/10 04:31:52;;;;;;;;;;;15.00;99.90;;;;;;5116411;27;20363;-75
2023/09/10 04:34:18;;;;;;;0.30;0.30;;;15.00;99.90;;;;;;5120329;27;20010;-76
2023/09/10 04:36:44;;;;;;;;;;;15.00;99.90;;;;;;5142710;27;20043;-75
2023/09/10 04:39:09;;;;;;;0.30;0.30;;;15.00;99.90;;;;;;5142041;27;19923;-75
2023/09/10 04:41:36;;;;;;;0.20;0.20;;;14.90;99.90;;;;;;5127035;27;20751;-75
2023/09/10 04:44:02;;;;;;;0.20;0.20;;;14.90;99.90;;;;;;5141637;27;20080;-74
2023/09/10 04:46:28;;;;;;;0.20;0.20;;;14.90;99.90;;;;;;5135463;27;20094;-76
2023/09/10 04:48:54;;;;;;;;;;;15.00;99.90;;;;;;5148533;27;20070;-76
2023/09/10 04:51:19;;;;;;;0.40;0.40;;;15.00;99.90;;;;;;5141731;27;19923;-76
2023/09/10 04:53:45;;;;;;;0.20;0.20;;;15.00;99.90;;;;;;5144553;27;20042;-75
2023/09/10 04:56:11;;;;;;;;;;;15.00;99.90;;;;;;5144305;27;20043;-76
2023/09/10 04:58:37;;;;;;;0.30;0.30;;;15.00;99.90;;;;;;5141546;27;20023;-75
2023/09/10 05:01:02;;;;;;;;;;;15.00;99.90;;;;;;5122529;27;20047;-76
2023/09/10 05:03:28;;;;;;;0.22;0.22;;;15.00;99.90;;;;;;5140487;27;19927;-76
2023/09/10 05:05:58;;;;;;;0.30;0.30;;;15.00;99.90;;;;;;5125570;27;20088;-75
2023/09/10 05:08:24;;;;;;;0.20;0.20;;;15.00;99.90;;;;;;5121295;27;20710;-75
2023/09/10 05:10:49;;;;;;;;;;;14.90;99.90;;;;;;5123075;27;20068;-75
2023/09/10 05:13:15;;;;;;;0.20;0.20;;;15.00;99.90;;;;;;5140720;27;19958;-75
2023/09/10 05:15:41;;;;;;;;;;;14.90;99.90;;;;;;5141246;27;20750;-75
2023/09/10 05:18:06;;;;;;;0.28;0.28;;;15.00;99.90;;;;;;5124384;27;19927;-75
2023/09/10 05:20:32;;;;;;;0.17;0.17;;;15.00;99.90;;;;;;5127646;27;20039;-75
2023/09/10 05:22:58;;;;;;;0.30;0.30;;;15.00;99.90;;;;;;5142580;27;20441;-75
2023/09/10 05:25:24;;;;;;;;;;;15.00;99.90;;;;;;5140388;27;20405;-75
2023/09/10 05:27:49;;;;;;;0.30;0.30;;;15.00;99.90;;;;;;5141024;27;19919;-75
2023/09/10 05:30:15;;;;;;;;;;;15.10;99.90;;;;;;5120776;27;20047;-75
2023/09/10 05:32:41;;;;;;;0.22;0.22;;;15.20;99.90;;;;;;5132244;27;19924;-75
2023/09/10 05:35:07;;;;;;;0.32;0.32;;;15.20;99.90;;;;;;5141350;27;20075;-76
2023/09/10 05:37:32;;;;;;;0.20;0.20;;;15.20;99.90;;;;;;5126073;27;20133;-76
2023/09/10 05:39:58;;;;;;;;;;;15.20;99.90;;;;;;5144451;27;20472;-76
2023/09/10 05:42:24;;;;;;;0.30;0.30;;;15.30;99.90;;;;;;5122403;27;19975;-76
2023/09/10 05:44:52;;;;;;;;;;;15.30;99.90;;;;;;5140864;27;20409;-76
2023/09/10 05:47:20;;;;;;;0.30;0.30;;;15.40;99.90;;;;;;5139622;27;19923;-75
2023/09/10 05:49:51;;;;;;;0.52;0.52;;;15.50;99.90;;;;;;5121589;27;20051;-76
2023/09/10 05:52:17;;;;;;;0.20;0.20;;;15.60;99.90;;;;;;5139799;27;20039;-76
2023/09/10 05:54:43;;;;;;;;;;;15.60;99.90;;;;;;5122939;27;20049;-75
2023/09/10 05:57:08;;;;;;;0.25;0.25;;;15.70;99.90;;;;;;5137833;27;20539;-76
2023/09/10 05:59:34;;;;;;;;;;;15.70;99.90;;;;;;5124616;27;20043;-76
2023/09/10 06:02:00;;;;;;;0.32;0.32;;;15.80;99.90;;;;;;5141624;27;19964;-76
2023/09/10 06:04:27;;;;;;;;;;;15.90;99.90;;;;;;5121783;27;20050;-75
2023/09/10 06:06:52;;;;;;;0.30;0.30;;;16.00;99.90;;;;;;5125047;27;20030;-76
2023/09/10 06:09:18;;;;;;;;;;;16.10;99.90;;;;;;5142035;27;20130;-75
2023/09/10 06:11:44;;;;;;;0.30;0.30;;;16.20;99.90;;;;;;5125517;27;19976;-74
2023/09/10 06:14:10;;;;;;;;;;;16.20;99.90;;;;;;5140020;27;20038;-75
2023/09/10 06:16:35;;;;;;;0.25;0.25;;;16.30;99.90;;;;;;5121569;27;19962;-75
2023/09/10 06:19:01;;;;;;;;;;;16.40;99.90;;;;;;5146877;27;20826;-75
2023/09/10 06:21:28;;;;;;;0.10;0.10;;;16.50;99.90;;;;;;5138198;27;19930;-76
2023/09/10 06:23:54;;;;;;;0.20;0.20;;;16.60;99.90;;;;;;5124197;27;20046;-76
2023/09/10 06:26:19;;;;;;;;;;;16.70;99.90;;;;;;5133065;27;20508;-76
2023/09/10 06:28:45;;;;;;;0.30;0.30;;;16.80;99.90;;;;;;5131149;27;20042;-75
2023/09/10 06:31:11;;;;;;;;;;;16.90;99.90;;;;;;5112916;27;20507;-76
2023/09/10 06:33:36;;;;;;;0.20;0.20;;;17.00;99.90;;;;;;5120802;27;20376;-76
2023/09/10 06:36:02;;;;;;;;;;;17.10;99.90;;;;;;5140120;27;20051;-75
2023/09/10 06:38:30;;;;;;;0.20;0.20;;;17.20;99.90;;;;;;5142047;27;19930;-75
2023/09/10 06:40:56;;;;;;;0.28;0.28;;;17.30;99.90;;;;;;5142609;27;20187;-75
2023/09/10 06:43:22;;;;;;;;;;;17.40;99.90;;;;;;5105506;27;20142;-76
2023/09/10 06:45:51;;;;;;;0.30;0.30;;;17.50;99.90;;;;;;5144221;27;19919;-75
2023/09/10 06:48:17;;;;;;;0.10;0.10;;;17.70;99.90;;;;;;5133681;27;20047;-76
2023/09/10 06:50:43;;;;;;;;;;;17.70;99.90;;;;;;5143180;27;20049;-76
2023/09/10 06:53:08;;;;;;;0.25;0.25;;;17.80;99.90;;;;;;5142934;27;19926;-76
2023/09/10 06:55:34;;;;;;;;;;;18.00;99.90;;;;;;5140801;27;20043;-76
2023/09/10 06:58:00;;;;;;;0.20;0.20;;;18.10;99.90;;;;;;5138774;27;19930;-76
2023/09/10 07:00:25;;;;;;;;;;;18.30;99.90;;;;;;5120781;27;20124;-76
2023/09/10 07:02:51;;;;;;;;;;;18.40;99.90;;;;;;5104134;28;19934;-75
2023/09/10 07:05:17;;;;;;;;;;;18.50;99.90;;;;;;5145983;27;19926;-76
2023/09/10 07:07:42;;;;;;;;;;;18.60;99.90;;;;;;5141580;27;19923;-75
2023/09/10 07:10:10;;;;;;;;;;;18.70;99.90;;;;;;5140921;27;19922;-75
2023/09/10 07:12:35;;;;;;;;;;;18.80;99.90;;;;;;5120453;27;19959;-75
2023/09/10 07:15:02;;;;;;;;;;;19.10;99.90;;;;;;5121511;27;20481;-75
2023/09/10 07:17:27;;;;;;;;;;;19.00;99.90;;;;;;5139266;27;19923;-76
2023/09/10 07:19:53;;;;;;;;;;;19.20;99.90;;;;;;5141361;27;20334;-76
2023/09/10 07:22:18;;;;;;;;;;;19.30;99.90;;;;;;5137066;27;20357;-76
2023/09/10 07:24:44;;;;;;;;;;;19.50;99.90;;;;;;5120678;27;20126;-75
2023/09/10 07:27:10;;;;;;;;;;;19.60;99.90;;;;;;5140262;27;19922;-75
2023/09/10 07:29:35;;;;;;;;;;;19.70;99.90;;;;;;5137481;27;19968;-75
2023/09/10 07:32:01;;;;;;;;;;;19.80;99.90;;;;;;5131912;27;20373;-76
2023/09/10 07:34:26;;;;;;;;;;;19.90;99.90;;;;;;5143850;27;19919;-76
2023/09/10 07:36:52;;;;;;;;;;;20.00;99.90;;;;;;5139927;27;19919;-76
2023/09/10 07:39:19;;;;;;;;;;;20.10;99.90;;;;;;5125782;27;19923;-76
2023/09/10 07:41:44;;;;;;;;;;;20.20;99.90;;;;;;5144711;27;19964;-77
2023/09/10 07:44:10;;;;;;;;;;;20.30;99.90;;;;;;5144676;27;19919;-77
2023/09/10 07:46:36;;;;;;;;;;;20.40;99.90;;;;;;5127713;27;19922;-77
2023/09/10 07:49:01;;;;;;;;;;;20.50;99.90;;;;;;5130828;27;19923;-76
2023/09/10 07:51:27;;;;;;;;;;;20.60;99.90;;;;;;5126426;27;19926;-77
2023/09/10 07:53:52;;;;;;;;;;;20.70;99.90;;;;;;5129374;27;20002;-77
2023/09/10 07:56:18;;;;;;;;;;;20.80;99.90;;;;;;5146739;27;20011;-77
2023/09/10 07:58:43;;;;;;;;;;;20.90;99.90;;;;;;5125458;27;20475;-77
2023/09/10 08:01:09;;;;;;;;;;;21.00;99.90;;;;;;5142611;27;19997;-78
2023/09/10 08:03:36;;;;;;;;;;;21.10;99.90;;;;;;5142746;27;19929;-77
2023/09/10 08:06:03;;;;;;;;;;;21.20;99.90;;;;;;5127021;27;19971;-77
2023/09/10 08:08:28;;;;;;;;;;;20.70;99.90;;;;;;5140289;27;19919;-77
2023/09/10 08:10:54;;;;;;;;;;;21.40;99.90;;;;;;5142877;27;19934;-77
2023/09/10 08:13:20;;;;;;;;;;;21.50;99.90;;;;;;5142590;27;20319;-77
2023/09/10 08:15:46;;;;;;;;;;;21.60;99.90;;;;;;5143593;27;19944;-78
2023/09/10 08:18:12;;;;;;;;;;;21.70;99.90;;;;;;5142265;27;19924;-77
2023/09/10 08:20:41;;;;;;;;;;;21.80;99.90;;;;;;5148245;27;19983;-78
2023/09/10 08:23:07;;;;;;;;;;;21.90;99.90;;;;;;5143122;27;19922;-77
2023/09/10 08:25:33;;;;;;;;;;;22.00;99.90;;;;;;5141688;27;20584;-77
2023/09/10 08:27:59;;;;;;;;;;;22.10;99.90;;;;;;5125131;27;19919;-77
2023/09/10 08:30:25;;;;;;;;;;;22.20;99.90;;;;;;5149152;27;19927;-77
2023/09/10 08:32:50;;;;;;;;;;;22.20;99.90;;;;;;5142263;27;19946;-77
2023/09/10 08:35:19;;;;;;;;;;;22.30;99.90;;;;;;5143927;27;19932;-75
2023/09/10 08:37:45;;;;;;;;;;;22.40;99.90;;;;;;5142378;27;19931;-78
2023/09/10 08:40:11;;;;;;;;;;;22.50;99.90;;;;;;5143635;27;20018;-77
2023/09/10 08:43:01;;;;;;;;;;;22.50;99.90;;;;;;5145175;27;19923;-77
2023/09/10 08:45:26;;;;;;;;;;;22.30;99.90;;;;;;5144162;27;20380;-77
2023/09/10 08:47:53;;;;;;;;;;;22.70;99.90;;;;;;5153915;27;19927;-77
2023/09/10 08:50:20;;;;;;;;;;;22.90;99.90;;;;;;5144156;27;19922;-77
2023/09/10 08:52:48;;;;;;;;;;;22.90;99.90;;;;;;5118981;27;19974;-77
2023/09/10 08:55:13;;;;;;;;;;;23.00;99.90;;;;;;5145277;27;19988;-77
2023/09/10 08:57:40;;;;;;;;;;;23.10;99.90;;;;;;5142091;27;20009;-78
2023/09/10 09:00:13;;;;;;;;;;;23.20;99.90;;;;;;5141693;27;20369;-77
2023/09/10 09:02:39;;;;;;;;;;;23.30;99.90;;;;;;5125271;27;19970;-77
2023/09/10 09:05:05;;;;;;;;;;;23.40;99.90;;;;;;5126425;27;20440;-78
2023/09/10 09:07:34;;;;;;;;;;;23.40;99.90;;;;;;5126269;27;20021;-77
2023/09/10 09:10:01;;;;;;;;;;;23.50;99.90;;;;;;5133821;27;19919;-77
2023/09/10 09:12:27;;;;;;;;;;;23.50;99.90;;;;;;5142040;27;19962;-77
2023/09/10 09:14:54;;;;;;;;;;;23.50;99.90;;;;;;5141162;27;19923;-77
2023/09/10 09:17:20;;;;;;;;;;;23.60;99.90;;;;;;5138636;27;19942;-77
2023/09/10 09:19:47;;;;;;;;;;;23.70;99.90;;;;;;5141924;27;20370;-77
2023/09/10 09:22:15;;;;;;;;;;;23.70;99.90;;;;;;5142295;27;19938;-77
2023/09/10 09:24:41;;;;;;;;;;;23.90;99.90;;;;;;5140178;27;19926;-77
2023/09/10 09:27:07;;;;;;;;;;;23.90;99.90;;;;;;5134903;27;19924;-78
2023/09/10 09:29:33;;;;;;;;;;;24.00;99.90;;;;;;5139299;27;19931;-77
2023/09/10 09:31:58;;;;;;;;;;;24.10;99.90;;;;;;5134464;27;19923;-78
2023/09/10 09:34:24;;;;;;;;;;;24.20;99.90;;;;;;5144629;27;19919;-78
2023/09/10 09:36:50;;;;;;;;;;;24.20;99.90;;;;;;5144579;27;20307;-78
2023/09/10 09:39:17;;;;;;;;;;;24.30;99.90;;;;;;5142639;27;19929;-78
2023/09/10 09:41:46;;;;;;;;;;;24.30;99.90;;;;;;5141694;27;19972;-77
2023/09/10 09:44:11;;;;;;;;;;;24.50;99.90;;;;;;5144109;27;19976;-77
2023/09/10 09:46:37;;;;;;;;;;;24.50;99.90;;;;;;5107638;27;19923;-78
2023/09/10 09:49:03;;;;;;;;;;;24.60;99.90;;;;;;5145932;27;19920;-77
2023/09/10 09:51:28;;;;;;;;;;;24.70;99.90;;;;;;5141213;27;19979;-77
2023/09/10 09:53:54;;;;;;;;;;;24.70;99.90;;;;;;5141488;27;19928;-77
2023/09/10 09:56:21;;;;;;;;;;;24.80;99.90;;;;;;5122633;27;19976;-77
2023/09/10 09:58:46;;;;;;;;;;;24.90;99.90;;;;;;5135407;27;19924;-77
2023/09/10 10:01:12;;;;;;;;;;;24.90;99.90;;;;;;5107689;27;20319;-77
2023/09/10 10:03:39;;;;;;;;;;;25.00;99.90;;;;;;5142188;27;19962;-76
2023/09/10 10:06:06;;;;;;;;;;;25.10;99.90;;;;;;5140136;27;20022;-75
2023/09/10 10:08:32;;;;;;;;;;;25.20;99.90;;;;;;5144968;27;19919;-76
2023/09/10 10:11:01;;;;;;;;;;;25.10;99.90;;;;;;5139751;27;20255;-77
2023/09/10 10:13:27;;;;;;;;;;;25.20;99.90;;;;;;5139304;27;19978;-76
2023/09/10 10:15:53;;;;;;;;;;;25.20;99.90;;;;;;5141337;27;19923;-77
2023/09/10 10:18:20;;;;;;;;;;;25.30;99.90;;;;;;5143437;27;19922;-76
2023/09/10 10:20:47;;;;;;;;;;;25.40;99.90;;;;;;5136404;27;19934;-77
2023/09/10 10:23:13;;;;;;;;;;;25.50;99.90;;;;;;5130798;27;20281;-77
2023/09/10 10:25:42;;;;;;;;;;;25.50;99.90;;;;;;5142736;27;19919;-77
2023/09/10 10:28:09;;;;;;;;;;;25.50;99.90;;;;;;5141797;27;19922;-77
2023/09/10 10:30:49;;;;;;;;;;;25.50;99.90;;;;;;5131188;27;19924;-77
2023/09/10 10:33:17;;;;;;;;;;;25.60;99.90;;;;;;5141304;27;20115;-76
2023/09/10 10:35:48;;;;;;;;;;;25.70;99.90;;;;;;5127243;27;20003;-76
2023/09/10 10:38:16;;;;;;;;;;;25.70;99.90;;;;;;5141761;27;19921;-78
2023/09/10 10:40:43;;;;;;;;;;;25.80;99.90;;;;;;5140817;27;19924;-78
2023/09/10 10:43:14;;;;;;;;;;;25.80;99.90;;;;;;5116519;27;20026;-78
2023/09/10 10:45:40;;;;;;;;;;;26.00;99.90;;;;;;5142144;27;20043;-78
2023/09/10 10:48:12;;;;;;;;;;;26.10;99.90;;;;;;5151739;27;19934;-77
2023/09/10 10:50:38;;;;;;;;;;;26.10;99.90;;;;;;5122299;27;20390;-77
2023/09/10 10:53:06;;;;;;;;;;;26.10;99.90;;;;;;5140106;27;19920;-77
2023/09/10 10:55:33;;;;;;;;;;;26.20;99.90;;;;;;5142050;27;19930;-77
2023/09/10 10:57:59;;;;;;;;;;;26.30;99.90;;;;;;5107675;27;19923;-77
2023/09/10 11:00:25;;;;;;;;;;;26.40;99.90;;;;;;5142824;27;19919;-77
2023/09/10 11:03:11;;;;;;;;;;;26.40;99.90;;;;;;5103829;28;20278;-77
2023/09/10 11:05:52;;;;;;;;;;;26.50;99.90;;;;;;5121237;27;20464;-78
2023/09/10 11:08:28;;;;;;;;;;;26.60;99.90;;;;;;5134799;27;19923;-78
2023/09/10 11:10:54;;;;;;;;;;;26.70;99.90;;;;;;5139417;27;19923;-78
2023/09/10 11:13:22;;;;;;;;;;;26.80;99.90;;;;;;5143601;27;19919;-78
2023/09/10 11:16:05;;;;;;;;;;;26.90;99.90;;;;;;5144741;27;20001;-78
2023/09/10 11:18:37;;;;;;;;;;;27.00;99.90;;;;;;5144422;27;20013;-77
2023/09/10 11:21:04;;;;;;;;;;;27.10;99.90;;;;;;5119512;27;20297;-78
2023/09/10 11:23:30;;;;;;;;;;;27.10;99.90;;;;;;5144028;27;19923;-77
2023/09/10 11:26:15;;;;;;;;;;;27.10;99.90;;;;;;5149163;27;19934;-78
2023/09/10 11:28:44;;;;;;;;;;;27.30;99.90;;;;;;5128412;27;19923;-79
2023/09/10 11:31:28;;;;;;;;;;;27.40;99.90;;;;;;5117331;27;20267;-77
2023/09/10 11:33:58;;;;;;;;;;;27.40;99.90;;;;;;5143540;27;20426;-78
2023/09/10 11:36:27;;;;;;;;;;;27.40;99.90;;;;;;5126606;27;19919;-78
2023/09/10 11:38:56;;;;;;;;;;;27.40;99.90;;;;;;5143265;27;19927;-79
2023/09/10 11:41:21;;;;;;;;;;;27.50;99.90;;;;;;5150320;27;19924;-78
2023/09/10 11:43:50;;;;;;;;;;;27.60;99.90;;;;;;5127989;27;19929;-78
2023/09/10 11:46:16;;;;;;;;;;;27.70;99.90;;;;;;5145875;27;19923;-77
2023/09/10 11:48:43;;;;;;;;;;;27.60;99.90;;;;;;5139276;27;19923;-78
2023/09/10 11:51:09;;;;;;;;;;;27.70;99.90;;;;;;5147090;27;19930;-78
2023/09/10 11:53:35;;;;;;;;;;;27.90;99.90;;;;;;5143854;27;19932;-77
2023/09/10 11:56:00;;;;;;;;;;;28.00;99.90;;;;;;5143082;27;19919;-78
2023/09/10 11:58:26;;;;;;;;;;;28.20;99.90;;;;;;5144178;27;19923;-78
2023/09/10 12:00:52;;;;;;;;;;;28.20;99.90;;;;;;5128001;27;20384;-78
2023/09/10 12:03:17;;;;;;;;;;;28.20;99.90;;;;;;5138566;27;20550;-78
2023/09/10 12:05:43;;;;;;;;;;;28.10;99.90;;;;;;5135618;27;19974;-78
2023/09/10 12:08:08;;;;;;;;;;;28.20;99.90;;;;;;5127704;27;19952;-78
2023/09/10 12:10:34;;;;;;;;;;;28.30;99.90;;;;;;5142540;27;19919;-77
2023/09/10 12:13:03;;;;;;;;;;;28.50;99.90;;;;;;5127222;27;19926;-78
2023/09/10 12:15:31;;;;;;;;;;;28.40;99.90;;;;;;5139124;27;19925;-77
2023/09/10 12:17:59;;;;;;;;;;;28.40;99.90;;;;;;5126396;27;19976;-78
2023/09/10 12:20:26;;;;;;;;;;;28.50;99.90;;;;;;5101770;27;20386;-78
2023/09/10 12:22:52;;;;;;;;;;;28.60;99.90;;;;;;5142051;27;20365;-78
2023/09/10 12:25:18;;;;;;;;;;;28.70;99.90;;;;;;5141701;27;19926;-78
2023/09/10 12:27:43;;;;;;;;;;;28.90;99.90;;;;;;5141572;27;20329;-77
2023/09/10 12:30:09;;;;;;;;;;;29.00;99.90;;;;;;5141699;27;20323;-77
2023/09/10 12:32:35;;;;;;;;;;;29.10;99.90;;;;;;5141014;27;19926;-78
2023/09/10 12:35:01;;;;;;;;;;;29.10;99.90;;;;;;5144599;27;19930;-78
2023/09/10 12:37:26;;;;;;;;;;;29.20;99.90;;;;;;5142263;27;20444;-78
2023/09/10 12:39:52;;;;;;;;;;;29.30;99.90;;;;;;5142011;27;19923;-78
2023/09/10 12:42:18;;;;;;;;;;;29.30;99.90;;;;;;5126202;27;19959;-78
2023/09/10 12:44:44;;;;;;;;;;;29.40;99.90;;;;;;5144820;27;19919;-78
2023/09/10 12:47:10;;;;;;;;;;;29.50;99.90;;;;;;5145386;27;19947;-78
2023/09/10 12:49:35;;;;;;;;;;;29.50;99.90;;;;;;5144509;27;19930;-78
2023/09/10 12:52:01;;;;;;;;;;;29.70;99.90;;;;;;5144660;27;19945;-78
2023/09/10 12:54:27;;;;;;;;;;;29.70;99.90;;;;;;5145011;27;19931;-79
2023/09/10 12:56:53;;;;;;;;;;;29.80;99.90;;;;;;5145996;27;19923;-79
2023/09/10 12:59:19;;;;;;;;;;;29.90;99.90;;;;;;5145296;27;19938;-78
2023/09/10 13:01:44;;;;;;;;;;;30.00;99.90;;;;;;5136246;27;19988;-78
2023/09/10 13:04:10;;;;;;;;;;;30.10;99.90;;;;;;5128637;27;20022;-78
2023/09/10 13:06:35;;;;;;;;;;;30.20;99.90;;;;;;5143477;27;19923;-78
2023/09/10 13:09:04;;;;;;;;;;;30.30;99.90;;;;;;5149614;27;19923;-78
2023/09/10 13:11:29;;;;;;;;;;;30.50;99.90;;;;;;5144362;27;19965;-78
2023/09/10 13:13:57;;;;;;;;;;;30.70;99.90;;;;;;5141370;27;20480;-79
2023/09/10 13:16:22;;;;;;;;;;;30.80;99.90;;;;;;5141820;27;20006;-79
2023/09/10 13:18:48;;;;;;;;;;;30.90;99.90;;;;;;5146961;27;20033;-80
2023/09/10 13:21:13;;;;;;;;;;;31.00;99.90;;;;;;5139850;27;20369;-77
2023/09/10 13:23:39;;;;;;;;;;;31.10;99.90;;;;;;5144737;27;19918;-76
2023/09/10 13:26:06;;;;;;;;;;;31.30;99.90;;;;;;5141936;27;20392;-79
2023/09/10 13:28:32;;;;;;;;;;;31.30;99.90;;;;;;5141904;27;20253;-78
2023/09/10 13:30:57;;;;;;;;;;;31.40;99.90;;;;;;5133092;27;19923;-78
2023/09/10 13:33:23;;;;;;;;;;;31.50;99.90;;;;;;5141384;27;19923;-78
2023/09/10 13:35:49;;;;;;;;;;;31.60;99.90;;;;;;5121986;27;19920;-78
2023/09/10 13:38:15;;;;;;;;;;;31.90;99.90;;;;;;5150242;27;19949;-79
2023/09/10 13:40:41;;;;;;;;;;;32.00;99.90;;;;;;5142265;27;20365;-78
2023/09/10 13:43:06;;;;;;;;;;;32.10;99.90;;;;;;5143840;27;20798;-78